Startpagina
METAR-TAF:

METAR-TAF

Vliegvelden :

Maracaibo, Venezuela

breedte: 10-34N, lengte: 071-44W, hoogte: 66 m

METAR: ontbreekt

Tijdstip: 06:03 (10:03 UTC)

Verwachting

Dit bericht is 6 uur en het 3 minuten geleden gemaakt, om 04:00 UTC
Verwachting geldig van 19 om 06 UTC tot 20 om 06 UTC
Wind kt uit het noorden
Zicht 10 km of meer
Verspreide wolken op 1300 ft
Tijdelijke
van 19 om 06 UTC tot 19 om 10 UTC
Zicht: 9000 m
Gebroken wolken op 1000 ft
motregen

TAF: SVMC 190400Z 1906/2006 00000KT 9999 SCT013 TX35/19Z TN24/08Z TEMPO 1906/1910 9000 DZ BKN010

Waarnemingen en weersverwachtingen van meer dan 4000 vliegvelden (METAR en TAF).

De beschikbare stations zijn de gele en rode punten op de kaart.

Ga met uw muis naar het station om de naam te zien.

Klik dan om waarnemingen en weersverwachtingen te zien.

kaart wijzigen: klik op de groene knoppen met een zwart kruis om in te zoomen, op de groene knop met een streepje om uit te zoomen of op de groene pijlen voor aangrenzende kaarten.


METAR-TAF: